Time;durP1;ratioP1;P1;durP2;ratioP2;P2;SDS_P1;SDS_P2;PMS_P1;PMS_P2;Temp;Humidity;BMP_temperature;BMP_pressure;BME280_temperature;BME280_humidity;BME280_pressure;Samples;Min_cycle;Max_cycle;Signal;HPM_P1;HPM_P2
2022/01/16 00:00:17;;;;;;;80.10;14.73;;;;;;;;;;5095835;28;20584;-66
2022/01/16 00:05:30;;;;;;;80.20;13.70;;;;;;;;;;5095710;28;20192;-66
2022/01/16 00:07:57;;;;;;;78.80;14.05;;;;;;;;;;5102910;28;20220;-66
2022/01/16 00:10:27;;;;;;;84.20;14.60;;;;;;;;;;5116125;28;20291;-66
2022/01/16 00:12:58;;;;;;;84.65;17.00;;;;;;;;;;5115774;27;20719;-66
2022/01/16 00:15:26;;;;;;;83.43;14.75;;;;;;;;;;5116013;28;20756;-66
2022/01/16 00:17:56;;;;;;;83.00;16.83;;;;;;;;;;5115489;28;20230;-66
2022/01/16 00:20:24;;;;;;;83.70;17.30;;;;;;;;;;5115940;28;20228;-66
2022/01/16 00:22:51;;;;;;;84.93;15.65;;;;;;;;;;5116046;28;20244;-66
2022/01/16 00:25:18;;;;;;;79.63;14.00;;;;;;;;;;5115916;28;20204;-66
2022/01/16 00:27:47;;;;;;;90.38;15.85;;;;;;;;;;5115862;28;20201;-66
2022/01/16 00:30:15;;;;;;;77.78;13.93;;;;;;;;;;5115961;28;20211;-66
2022/01/16 00:32:42;;;;;;;85.15;14.40;;;;;;;;;;5115989;28;20307;-66
2022/01/16 00:35:11;;;;;;;81.00;12.70;;;;;;;;;;5116240;28;20665;-66
2022/01/16 00:37:38;;;;;;;84.05;14.43;;;;;;;;;;5117297;28;20267;-66
2022/01/16 00:40:06;;;;;;;77.53;13.25;;;;;;;;;;5125284;28;20204;-67
2022/01/16 00:42:33;;;;;;;79.70;13.68;;;;;;;;;;5127424;27;20308;-67
2022/01/16 00:45:02;;;;;;;81.10;14.63;;;;;;;;;;5127711;28;20657;-67
2022/01/16 00:47:29;;;;;;;82.65;13.25;;;;;;;;;;5127407;28;20252;-67
2022/01/16 00:49:57;;;;;;;83.45;14.55;;;;;;;;;;5127298;28;20290;-66
2022/01/16 00:52:24;;;;;;;77.82;14.63;;;;;;;;;;5126514;28;20817;-66
2022/01/16 00:54:51;;;;;;;83.22;15.80;;;;;;;;;;5126516;28;20214;-66
2022/01/16 00:57:18;;;;;;;88.65;15.68;;;;;;;;;;5124933;28;20552;-67
2022/01/16 00:59:46;;;;;;;80.47;14.13;;;;;;;;;;5114736;28;20684;-66
2022/01/16 01:02:14;;;;;;;77.45;13.75;;;;;;;;;;5114882;28;20255;-66
2022/01/16 01:04:46;;;;;;;80.22;14.50;;;;;;;;;;5115028;28;20600;-66
2022/01/16 01:07:14;;;;;;;82.45;15.48;;;;;;;;;;5114417;28;20257;-66
2022/01/16 01:09:41;;;;;;;79.43;14.25;;;;;;;;;;5114740;28;20211;-66
2022/01/16 01:12:09;;;;;;;79.13;14.55;;;;;;;;;;5111972;28;20726;-66
2022/01/16 01:14:42;;;;;;;84.25;16.65;;;;;;;;;;5114586;28;20295;-66
2022/01/16 01:17:13;;;;;;;83.15;15.45;;;;;;;;;;5114655;28;20232;-66
2022/01/16 01:19:41;;;;;;;80.15;15.20;;;;;;;;;;5114879;28;20212;-67
2022/01/16 01:22:08;;;;;;;81.00;14.70;;;;;;;;;;5114411;28;20228;-67
2022/01/16 01:24:36;;;;;;;79.20;14.40;;;;;;;;;;5114543;28;20204;-67
2022/01/16 01:27:12;;;;;;;79.13;14.57;;;;;;;;;;5114779;28;20290;-67
2022/01/16 01:29:43;;;;;;;79.82;14.57;;;;;;;;;;5114373;28;20680;-66
2022/01/16 01:32:10;;;;;;;77.28;13.10;;;;;;;;;;5114320;28;21027;-66
2022/01/16 01:34:37;;;;;;;81.68;13.55;;;;;;;;;;5114305;28;20206;-66
2022/01/16 01:37:06;;;;;;;88.22;17.73;;;;;;;;;;5114822;28;20248;-67
2022/01/16 01:39:33;;;;;;;83.43;14.10;;;;;;;;;;5113955;28;20300;-66
2022/01/16 01:42:07;;;;;;;82.95;14.90;;;;;;;;;;5107712;28;20235;-66
2022/01/16 01:52:51;;;;;;;84.30;14.30;;;;;;;;;;5109131;28;20276;-66
2022/01/16 01:55:18;;;;;;;81.55;14.65;;;;;;;;;;5113961;28;20226;-66
2022/01/16 01:57:45;;;;;;;79.32;14.15;;;;;;;;;;5113502;28;20205;-66
2022/01/16 02:00:18;;;;;;;84.57;15.80;;;;;;;;;;5114134;28;20959;-66
2022/01/16 02:02:58;;;;;;;87.18;14.75;;;;;;;;;;5113733;28;20227;-66
2022/01/16 02:05:25;;;;;;;85.00;15.73;;;;;;;;;;5113792;28;20281;-66
2022/01/16 02:07:54;;;;;;;82.78;15.13;;;;;;;;;;5112990;28;20616;-66
2022/01/16 02:10:21;;;;;;;84.22;17.13;;;;;;;;;;5113449;28;20215;-66
2022/01/16 02:12:54;;;;;;;87.15;16.80;;;;;;;;;;5113199;27;20216;-66
2022/01/16 02:15:38;;;;;;;90.57;16.17;;;;;;;;;;5095774;28;20209;-67
2022/01/16 02:29:38;;;;;;;85.70;15.13;;;;;;;;;;5113195;28;20722;-66
2022/01/16 02:32:02;;;;;;;83.00;15.23;;;;;;;;;;5113113;28;20700;-66
2022/01/16 02:34:34;;;;;;;85.65;15.68;;;;;;;;;;5112988;28;20200;-66
2022/01/16 02:37:05;;;;;;;81.00;13.68;;;;;;;;;;5113058;28;20238;-66
2022/01/16 02:39:35;;;;;;;88.60;15.90;;;;;;;;;;5113492;28;20212;-66
2022/01/16 02:42:03;;;;;;;86.30;14.35;;;;;;;;;;5113168;28;20236;-66
2022/01/16 02:44:34;;;;;;;85.82;16.58;;;;;;;;;;5112891;28;20208;-66
2022/01/16 02:47:02;;;;;;;84.22;14.00;;;;;;;;;;5110874;28;20295;-66
2022/01/16 02:49:30;;;;;;;90.32;14.18;;;;;;;;;;5112833;28;20200;-66
2022/01/16 02:51:59;;;;;;;81.78;14.35;;;;;;;;;;5113085;27;20242;-66
2022/01/16 02:54:28;;;;;;;90.10;17.58;;;;;;;;;;5112519;28;20200;-66
2022/01/16 02:56:56;;;;;;;93.80;17.27;;;;;;;;;;5112757;28;20278;-66
2022/01/16 02:59:23;;;;;;;85.55;15.63;;;;;;;;;;5112421;28;20200;-66
2022/01/16 03:01:51;;;;;;;80.80;15.23;;;;;;;;;;5112303;28;20246;-66
2022/01/16 03:04:18;;;;;;;86.82;17.15;;;;;;;;;;5112912;28;20580;-66
2022/01/16 03:06:45;;;;;;;86.25;17.15;;;;;;;;;;5112798;28;20205;-66
2022/01/16 03:09:12;;;;;;;86.28;17.10;;;;;;;;;;5112218;28;20359;-66
2022/01/16 03:11:45;;;;;;;88.03;16.55;;;;;;;;;;5112478;28;20258;-66
2022/01/16 03:14:15;;;;;;;93.47;17.55;;;;;;;;;;5112402;28;20298;-66
2022/01/16 03:16:46;;;;;;;91.22;17.65;;;;;;;;;;5112317;28;20205;-66
2022/01/16 03:22:02;;;;;;;91.85;17.73;;;;;;;;;;5111878;28;20231;-67
2022/01/16 03:24:30;;;;;;;87.07;17.08;;;;;;;;;;5112226;28;20239;-66
2022/01/16 03:26:59;;;;;;;93.18;18.60;;;;;;;;;;5112696;28;20228;-66
2022/01/16 03:29:28;;;;;;;90.63;16.80;;;;;;;;;;5112297;28;20210;-66
2022/01/16 03:31:55;;;;;;;93.97;17.15;;;;;;;;;;5112263;28;20255;-66
2022/01/16 03:34:22;;;;;;;95.82;17.60;;;;;;;;;;5112114;28;20226;-66
2022/01/16 03:36:50;;;;;;;85.65;17.85;;;;;;;;;;5112324;28;20665;-66
2022/01/16 03:39:17;;;;;;;87.78;17.17;;;;;;;;;;5111747;28;20743;-67
2022/01/16 03:41:44;;;;;;;86.38;16.65;;;;;;;;;;5112242;28;20224;-66
2022/01/16 03:44:12;;;;;;;92.72;17.20;;;;;;;;;;5111912;28;20299;-68
2022/01/16 03:46:41;;;;;;;96.80;19.70;;;;;;;;;;5112422;28;20295;-67
2022/01/16 03:49:09;;;;;;;94.75;18.20;;;;;;;;;;5111801;28;20294;-67
2022/01/16 03:51:36;;;;;;;98.30;19.20;;;;;;;;;;5109631;28;20724;-67
2022/01/16 03:54:04;;;;;;;91.43;18.55;;;;;;;;;;5111875;28;20210;-67
2022/01/16 03:56:31;;;;;;;86.03;17.80;;;;;;;;;;5112162;28;20200;-66
2022/01/16 03:58:58;;;;;;;84.57;16.90;;;;;;;;;;5112052;28;20200;-67
2022/01/16 04:01:25;;;;;;;99.20;23.00;;;;;;;;;;5111936;28;20236;-67
2022/01/16 04:03:54;;;;;;;88.90;17.50;;;;;;;;;;5111913;28;20295;-67
2022/01/16 04:06:22;;;;;;;87.88;16.20;;;;;;;;;;5111824;28;20579;-67
2022/01/16 04:08:49;;;;;;;89.35;19.17;;;;;;;;;;5111680;28;20306;-67
2022/01/16 04:11:16;;;;;;;92.82;17.08;;;;;;;;;;5111934;28;20592;-67
2022/01/16 04:13:50;;;;;;;86.43;17.75;;;;;;;;;;5111865;28;20208;-67
2022/01/16 04:16:17;;;;;;;96.32;18.73;;;;;;;;;;5112060;28;20212;-67
2022/01/16 04:18:44;;;;;;;97.90;19.77;;;;;;;;;;5111346;28;20214;-66
2022/01/16 04:21:13;;;;;;;89.75;19.35;;;;;;;;;;5111831;28;20204;-67
2022/01/16 04:23:40;;;;;;;90.63;19.27;;;;;;;;;;5109761;28;20295;-66
2022/01/16 04:26:07;;;;;;;95.93;18.63;;;;;;;;;;5111667;28;20200;-66
2022/01/16 04:28:34;;;;;;;96.05;20.77;;;;;;;;;;5111294;28;20209;-66
2022/01/16 04:31:01;;;;;;;90.40;19.15;;;;;;;;;;5111881;28;20215;-66
2022/01/16 04:33:28;;;;;;;88.07;19.00;;;;;;;;;;5115147;27;20242;-66
2022/01/16 04:35:56;;;;;;;87.55;17.67;;;;;;;;;;5115575;28;20211;-67
2022/01/16 04:38:24;;;;;;;104.07;21.05;;;;;;;;;;5115107;28;20295;-66
2022/01/16 04:43:52;;;;;;;93.82;20.33;;;;;;;;;;5114978;28;20316;-67
2022/01/16 04:46:20;;;;;;;87.93;19.00;;;;;;;;;;5115694;28;20683;-67
2022/01/16 04:48:47;;;;;;;89.05;19.75;;;;;;;;;;5115062;27;20678;-66
2022/01/16 04:51:14;;;;;;;91.70;19.38;;;;;;;;;;5115008;28;20671;-66
2022/01/16 04:53:43;;;;;;;97.07;20.58;;;;;;;;;;5112486;28;20294;-66
2022/01/16 04:56:11;;;;;;;99.68;20.92;;;;;;;;;;5114952;28;20296;-66
2022/01/16 04:58:39;;;;;;;86.40;16.42;;;;;;;;;;5114693;28;20260;-66
2022/01/16 05:01:07;;;;;;;95.35;19.10;;;;;;;;;;5115180;28;20474;-67
2022/01/16 05:03:34;;;;;;;94.50;19.60;;;;;;;;;;5114789;28;20224;-66
2022/01/16 05:06:02;;;;;;;89.28;20.10;;;;;;;;;;5115161;28;20639;-67
2022/01/16 05:08:29;;;;;;;89.90;18.30;;;;;;;;;;5114802;28;20216;-67
2022/01/16 05:10:58;;;;;;;83.57;17.00;;;;;;;;;;5115159;28;20204;-67
2022/01/16 05:13:31;;;;;;;86.32;17.15;;;;;;;;;;5114843;28;20256;-67
2022/01/16 05:18:43;;;;;;;87.97;18.15;;;;;;;;;;5114423;28;20195;-67
2022/01/16 05:21:11;;;;;;;87.63;21.10;;;;;;;;;;5114574;28;20211;-67
2022/01/16 05:23:39;;;;;;;93.28;20.25;;;;;;;;;;5114264;27;20244;-67
2022/01/16 05:26:08;;;;;;;86.20;18.17;;;;;;;;;;5113025;28;20235;-67
2022/01/16 05:28:36;;;;;;;90.65;19.20;;;;;;;;;;5114439;28;20208;-67
2022/01/16 05:31:03;;;;;;;99.43;20.00;;;;;;;;;;5114659;28;20208;-67
2022/01/16 05:33:30;;;;;;;89.97;18.90;;;;;;;;;;5114298;28;20296;-67
2022/01/16 05:35:58;;;;;;;92.72;19.60;;;;;;;;;;5114328;28;20215;-67
2022/01/16 05:38:25;;;;;;;98.70;20.40;;;;;;;;;;5113937;28;20684;-67
2022/01/16 05:40:52;;;;;;;85.90;20.05;;;;;;;;;;5114394;28;20287;-67
2022/01/16 05:43:20;;;;;;;90.03;19.55;;;;;;;;;;5113262;28;20228;-67
2022/01/16 05:45:48;;;;;;;85.10;18.55;;;;;;;;;;5114182;28;20299;-67
2022/01/16 05:48:15;;;;;;;89.55;19.33;;;;;;;;;;5113561;28;20680;-67
2022/01/16 05:50:42;;;;;;;92.22;20.15;;;;;;;;;;5114074;28;20211;-66
2022/01/16 05:53:09;;;;;;;90.82;19.42;;;;;;;;;;5114168;28;20258;-67
2022/01/16 05:55:37;;;;;;;88.43;18.90;;;;;;;;;;5114030;28;20208;-67
2022/01/16 05:58:04;;;;;;;92.75;19.67;;;;;;;;;;5093129;28;20669;-67
2022/01/16 06:00:32;;;;;;;82.13;17.38;;;;;;;;;;5093608;28;20205;-67
2022/01/16 06:03:00;;;;;;;91.20;18.70;;;;;;;;;;5093084;28;20315;-66
2022/01/16 06:05:27;;;;;;;87.13;19.48;;;;;;;;;;5093544;28;20219;-67
2022/01/16 06:07:58;;;;;;;96.38;18.52;;;;;;;;;;5093027;28;20221;-67
2022/01/16 06:10:25;;;;;;;86.07;17.73;;;;;;;;;;5093559;28;20209;-67
2022/01/16 06:12:52;;;;;;;89.25;20.00;;;;;;;;;;5092963;28;20232;-66
2022/01/16 06:15:19;;;;;;;80.30;16.60;;;;;;;;;;5093297;28;20409;-67
2022/01/16 06:17:48;;;;;;;84.13;17.35;;;;;;;;;;5092962;28;20300;-67
2022/01/16 06:20:15;;;;;;;97.20;19.38;;;;;;;;;;5093258;28;20295;-67
2022/01/16 06:22:43;;;;;;;91.18;19.08;;;;;;;;;;5093028;28;20217;-67
2022/01/16 06:25:10;;;;;;;93.80;17.35;;;;;;;;;;5093100;28;20577;-67
2022/01/16 06:27:37;;;;;;;90.25;20.38;;;;;;;;;;5092570;28;20227;-67
2022/01/16 06:30:05;;;;;;;89.80;17.33;;;;;;;;;;5112999;28;20208;-67
2022/01/16 06:32:32;;;;;;;93.30;20.05;;;;;;;;;;5112884;28;20228;-67
2022/01/16 06:35:01;;;;;;;94.28;22.13;;;;;;;;;;5113256;28;20299;-67
2022/01/16 06:37:28;;;;;;;97.53;20.17;;;;;;;;;;5112934;28;20735;-67
2022/01/16 06:39:55;;;;;;;85.28;18.75;;;;;;;;;;5113074;28;20204;-67
2022/01/16 06:42:22;;;;;;;86.70;18.23;;;;;;;;;;5112889;28;20315;-67
2022/01/16 06:44:50;;;;;;;90.05;19.20;;;;;;;;;;5112902;27;20200;-67
2022/01/16 06:47:17;;;;;;;86.38;19.58;;;;;;;;;;5112504;28;20218;-67
2022/01/16 06:49:45;;;;;;;89.03;20.73;;;;;;;;;;5112946;28;20269;-67
2022/01/16 06:52:13;;;;;;;92.07;20.30;;;;;;;;;;5112925;28;20220;-67
2022/01/16 06:54:40;;;;;;;86.45;18.77;;;;;;;;;;5112830;28;20211;-67
2022/01/16 06:57:08;;;;;;;91.43;20.50;;;;;;;;;;5112421;28;20210;-67
2022/01/16 06:59:38;;;;;;;86.93;17.98;;;;;;;;;;5112845;28;20576;-67
2022/01/16 07:02:05;;;;;;;88.80;18.85;;;;;;;;;;5091388;28;20797;-67
2022/01/16 07:04:33;;;;;;;86.25;17.33;;;;;;;;;;5092214;28;20200;-67
2022/01/16 07:07:00;;;;;;;82.65;17.13;;;;;;;;;;5092321;28;20247;-67
2022/01/16 07:09:28;;;;;;;79.38;17.83;;;;;;;;;;5092011;28;20589;-67
2022/01/16 07:11:56;;;;;;;82.25;16.15;;;;;;;;;;5092215;28;20603;-67
2022/01/16 07:14:23;;;;;;;84.15;16.85;;;;;;;;;;5092235;28;20663;-67
2022/01/16 07:16:50;;;;;;;79.70;15.95;;;;;;;;;;5092109;28;20201;-67
2022/01/16 07:19:17;;;;;;;90.53;17.55;;;;;;;;;;5091909;28;20862;-67
2022/01/16 07:21:45;;;;;;;83.43;19.40;;;;;;;;;;5091839;28;20236;-67
2022/01/16 07:24:15;;;;;;;84.53;18.98;;;;;;;;;;5091715;28;20239;-67
2022/01/16 07:26:44;;;;;;;84.78;18.30;;;;;;;;;;5091968;28;20216;-67
2022/01/16 07:29:11;;;;;;;84.25;18.50;;;;;;;;;;5091862;28;20292;-67
2022/01/16 07:31:39;;;;;;;91.32;18.58;;;;;;;;;;5090910;28;20316;-67
2022/01/16 07:34:06;;;;;;;82.85;16.92;;;;;;;;;;5091766;28;20221;-67
2022/01/16 07:36:34;;;;;;;84.50;17.88;;;;;;;;;;5091851;28;20584;-67
2022/01/16 07:39:01;;;;;;;82.43;18.58;;;;;;;;;;5091568;28;20219;-67
2022/01/16 07:41:28;;;;;;;81.72;17.63;;;;;;;;;;5091839;28;20665;-67
2022/01/16 07:43:57;;;;;;;86.95;18.65;;;;;;;;;;5091555;28;20205;-67
2022/01/16 07:46:24;;;;;;;81.13;17.33;;;;;;;;;;5092230;28;20208;-67
2022/01/16 07:48:51;;;;;;;82.93;18.52;;;;;;;;;;5091514;28;20200;-67
2022/01/16 07:51:18;;;;;;;80.05;17.40;;;;;;;;;;5091552;28;20295;-67
2022/01/16 07:53:45;;;;;;;84.47;18.05;;;;;;;;;;5091795;28;20672;-67
2022/01/16 07:56:12;;;;;;;86.68;19.48;;;;;;;;;;5091912;28;20204;-67
2022/01/16 07:58:41;;;;;;;88.57;20.50;;;;;;;;;;5091630;28;20208;-67
2022/01/16 08:01:10;;;;;;;86.38;16.20;;;;;;;;;;5091723;28;20282;-67
2022/01/16 08:03:37;;;;;;;82.40;18.48;;;;;;;;;;5092373;28;20607;-66
2022/01/16 08:06:04;;;;;;;81.53;16.83;;;;;;;;;;5112205;28;20752;-67
2022/01/16 08:08:31;;;;;;;87.10;18.40;;;;;;;;;;5115733;28;20216;-67
2022/01/16 08:10:59;;;;;;;85.60;17.85;;;;;;;;;;5116232;28;20204;-67
2022/01/16 08:13:26;;;;;;;86.68;17.60;;;;;;;;;;5115758;28;20319;-67
2022/01/16 08:15:53;;;;;;;83.80;19.20;;;;;;;;;;5115802;28;20303;-67
2022/01/16 08:18:21;;;;;;;88.00;18.25;;;;;;;;;;5115402;28;20204;-67
2022/01/16 08:20:48;;;;;;;88.15;19.73;;;;;;;;;;5115942;28;20295;-67
2022/01/16 08:23:16;;;;;;;82.40;16.02;;;;;;;;;;5115845;28;20603;-67
2022/01/16 08:25:43;;;;;;;82.95;16.08;;;;;;;;;;5115829;27;20212;-67
2022/01/16 08:28:10;;;;;;;87.05;17.35;;;;;;;;;;5115360;28;20210;-67
2022/01/16 08:30:37;;;;;;;83.18;18.52;;;;;;;;;;5115390;28;20299;-67
2022/01/16 08:33:04;;;;;;;83.80;17.77;;;;;;;;;;5115503;28;20224;-67
2022/01/16 08:35:33;;;;;;;81.72;16.73;;;;;;;;;;5113495;28;20203;-67
2022/01/16 08:38:00;;;;;;;88.78;19.23;;;;;;;;;;5115562;28;20200;-67
2022/01/16 08:40:27;;;;;;;82.65;17.63;;;;;;;;;;5115029;28;20214;-67
2022/01/16 08:42:54;;;;;;;84.53;16.55;;;;;;;;;;5114831;27;20231;-67
2022/01/16 08:45:21;;;;;;;84.75;19.25;;;;;;;;;;5114671;28;20200;-67
2022/01/16 08:47:48;;;;;;;84.97;18.75;;;;;;;;;;5115287;28;20214;-67
2022/01/16 08:50:16;;;;;;;86.15;19.38;;;;;;;;;;5115344;28;20207;-67
2022/01/16 08:52:45;;;;;;;88.78;19.30;;;;;;;;;;5114739;28;20311;-67
2022/01/16 08:55:12;;;;;;;87.07;18.65;;;;;;;;;;5115057;28;20208;-67
2022/01/16 08:57:39;;;;;;;85.68;17.35;;;;;;;;;;5114825;28;20751;-67
2022/01/16 09:00:08;;;;;;;83.00;16.90;;;;;;;;;;5114849;28;20296;-67
2022/01/16 09:02:35;;;;;;;82.20;17.35;;;;;;;;;;5115021;28;20223;-66
2022/01/16 09:05:02;;;;;;;86.30;19.35;;;;;;;;;;5114922;27;20295;-67
2022/01/16 09:07:30;;;;;;;83.85;18.88;;;;;;;;;;5114603;28;20518;-67
2022/01/16 09:10:00;;;;;;;83.15;18.13;;;;;;;;;;5115248;28;20208;-66
2022/01/16 09:12:27;;;;;;;83.05;16.40;;;;;;;;;;5114604;28;20577;-67
2022/01/16 09:14:55;;;;;;;83.07;17.17;;;;;;;;;;5114793;28;20224;-66
2022/01/16 09:17:22;;;;;;;87.30;17.08;;;;;;;;;;5113965;28;20299;-68
2022/01/16 09:19:49;;;;;;;83.50;16.77;;;;;;;;;;5114056;28;20291;-67
2022/01/16 09:22:16;;;;;;;87.55;17.27;;;;;;;;;;5114624;28;20228;-66
2022/01/16 09:24:43;;;;;;;83.22;18.67;;;;;;;;;;5114723;28;20286;-66
2022/01/16 09:27:12;;;;;;;83.93;16.95;;;;;;;;;;5113970;28;20299;-67
2022/01/16 09:29:39;;;;;;;84.22;18.23;;;;;;;;;;5114600;28;20651;-66
2022/01/16 09:32:06;;;;;;;84.25;17.13;;;;;;;;;;5114530;27;20220;-66
2022/01/16 09:34:34;;;;;;;90.93;20.08;;;;;;;;;;5114279;27;20230;-66
2022/01/16 09:37:07;;;;;;;81.88;16.13;;;;;;;;;;5114410;28;20287;-67
2022/01/16 09:39:34;;;;;;;94.22;19.45;;;;;;;;;;5113957;28;20664;-66
2022/01/16 09:42:01;;;;;;;83.30;18.42;;;;;;;;;;5114197;28;20226;-67
2022/01/16 09:44:30;;;;;;;91.28;20.00;;;;;;;;;;5114345;28;20200;-67
2022/01/16 09:46:59;;;;;;;82.53;18.02;;;;;;;;;;5114194;28;20208;-66
2022/01/16 09:49:26;;;;;;;83.63;16.80;;;;;;;;;;5113993;28;20624;-68
2022/01/16 09:51:53;;;;;;;82.30;17.70;;;;;;;;;;5114047;28;20826;-71
2022/01/16 09:54:22;;;;;;;83.38;17.13;;;;;;;;;;5114861;27;20242;-66
2022/01/16 09:56:49;;;;;;;81.28;17.65;;;;;;;;;;5114127;27;20291;-67
2022/01/16 09:59:16;;;;;;;84.78;18.42;;;;;;;;;;5113619;28;20299;-67
2022/01/16 10:01:45;;;;;;;82.63;16.58;;;;;;;;;;5113879;28;20230;-67
2022/01/16 10:04:27;;;;;;;78.13;16.10;;;;;;;;;;5113961;28;20291;-69
2022/01/16 10:06:56;;;;;;;80.70;18.05;;;;;;;;;;5113595;28;20299;-66
2022/01/16 10:09:23;;;;;;;84.80;17.95;;;;;;;;;;5113428;28;20295;-66
2022/01/16 10:11:55;;;;;;;81.20;19.23;;;;;;;;;;5113770;28;20658;-66
2022/01/16 10:14:28;;;;;;;79.60;16.10;;;;;;;;;;5113619;28;20220;-67
2022/01/16 10:16:57;;;;;;;82.13;18.15;;;;;;;;;;5113547;27;20208;-66
2022/01/16 10:19:25;;;;;;;86.22;18.40;;;;;;;;;;5113368;28;20203;-66
2022/01/16 10:21:53;;;;;;;84.50;20.05;;;;;;;;;;5113217;28;20737;-66
2022/01/16 10:24:22;;;;;;;84.35;18.90;;;;;;;;;;5113533;28;20227;-66
2022/01/16 10:26:52;;;;;;;85.00;18.85;;;;;;;;;;5113189;28;20205;-66
2022/01/16 10:29:20;;;;;;;87.68;19.80;;;;;;;;;;5113040;28;20206;-66
2022/01/16 10:31:49;;;;;;;84.45;18.75;;;;;;;;;;5113052;28;20228;-66
2022/01/16 10:34:34;;;;;;;90.47;18.75;;;;;;;;;;5113368;28;20260;-67
2022/01/16 10:37:01;;;;;;;85.82;18.40;;;;;;;;;;5113193;28;20665;-66
2022/01/16 10:39:28;;;;;;;79.18;17.80;;;;;;;;;;5113061;28;20291;-66
2022/01/16 10:42:23;;;;;;;79.75;17.15;;;;;;;;;;5113026;28;20232;-67
2022/01/16 10:44:56;;;;;;;83.38;17.58;;;;;;;;;;5077179;28;20574;-66
2022/01/16 10:47:24;;;;;;;80.93;16.10;;;;;;;;;;5112877;28;20205;-67
2022/01/16 10:50:00;;;;;;;82.00;18.45;;;;;;;;;;5113059;28;20208;-65
2022/01/16 10:52:27;;;;;;;80.38;18.88;;;;;;;;;;5112765;28;20735;-65
2022/01/16 10:54:54;;;;;;;85.05;18.85;;;;;;;;;;5113196;28;20224;-66
2022/01/16 10:57:23;;;;;;;81.53;19.50;;;;;;;;;;5112770;28;20577;-67
2022/01/16 10:59:50;;;;;;;85.68;18.88;;;;;;;;;;5113198;28;20204;-66
2022/01/16 11:02:17;;;;;;;77.95;16.42;;;;;;;;;;5112756;28;20318;-66
2022/01/16 11:04:45;;;;;;;84.70;18.88;;;;;;;;;;5112891;28;20578;-67
2022/01/16 11:07:13;;;;;;;85.70;20.33;;;;;;;;;;5112258;28;20210;-67
2022/01/16 11:09:40;;;;;;;87.68;18.15;;;;;;;;;;5113183;28;20208;-66
2022/01/16 11:12:08;;;;;;;89.00;20.85;;;;;;;;;;5112925;28;20224;-67
2022/01/16 11:14:35;;;;;;;86.53;17.13;;;;;;;;;;5110253;28;20311;-67
2022/01/16 11:17:02;;;;;;;89.63;20.40;;;;;;;;;;5112515;28;20208;-67
2022/01/16 11:19:35;;;;;;;85.40;19.00;;;;;;;;;;5112075;28;20732;-68
2022/01/16 11:22:04;;;;;;;82.22;18.23;;;;;;;;;;5112284;28;20229;-68
2022/01/16 11:24:47;;;;;;;84.47;19.17;;;;;;;;;;5112214;28;20207;-66
2022/01/16 11:27:16;;;;;;;88.25;18.17;;;;;;;;;;5111927;28;20204;-66
2022/01/16 11:29:44;;;;;;;86.28;17.67;;;;;;;;;;5112169;28;20211;-66
2022/01/16 11:32:11;;;;;;;87.13;19.20;;;;;;;;;;5112335;28;20234;-66
2022/01/16 11:34:38;;;;;;;89.28;18.65;;;;;;;;;;5112336;28;20220;-67
2022/01/16 11:37:06;;;;;;;91.57;18.92;;;;;;;;;;5113316;28;20295;-67
2022/01/16 11:39:39;;;;;;;88.88;19.45;;;;;;;;;;5115946;28;20744;-67
2022/01/16 11:42:15;;;;;;;85.80;18.83;;;;;;;;;;5118534;28;20224;-67
2022/01/16 11:44:51;;;;;;;87.30;19.00;;;;;;;;;;5120286;28;20239;-67
2022/01/16 11:47:18;;;;;;;89.93;19.23;;;;;;;;;;5117868;28;20230;-67
2022/01/16 11:49:46;;;;;;;89.85;20.13;;;;;;;;;;5119315;28;20302;-69
2022/01/16 11:52:14;;;;;;;97.35;22.67;;;;;;;;;;5131013;28;20704;-67
2022/01/16 11:54:44;;;;;;;86.57;20.20;;;;;;;;;;5125614;28;20277;-67
2022/01/16 11:57:21;;;;;;;95.10;19.23;;;;;;;;;;5113724;28;20255;-68
2022/01/16 11:59:49;;;;;;;96.15;18.80;;;;;;;;;;5107149;28;20235;-68
2022/01/16 12:02:18;;;;;;;90.10;20.13;;;;;;;;;;5108470;28;20224;-68
2022/01/16 12:04:53;;;;;;;92.15;21.35;;;;;;;;;;5108965;28;20296;-68
2022/01/16 12:07:44;;;;;;;90.03;18.90;;;;;;;;;;5107029;28;20204;-67
2022/01/16 12:10:13;;;;;;;85.03;18.23;;;;;;;;;;5106300;28;20212;-68
2022/01/16 12:12:40;;;;;;;81.07;17.13;;;;;;;;;;5105547;28;20272;-68
2022/01/16 12:15:08;;;;;;;87.60;19.52;;;;;;;;;;5104253;28;20260;-68
2022/01/16 12:17:38;;;;;;;84.78;18.48;;;;;;;;;;5099596;28;20268;-68
2022/01/16 12:20:22;;;;;;;86.78;17.38;;;;;;;;;;5098253;28;20236;-67
2022/01/16 12:22:52;;;;;;;87.38;19.52;;;;;;;;;;5100635;28;20228;-68
2022/01/16 12:25:22;;;;;;;84.15;17.17;;;;;;;;;;5099655;28;20236;-68
2022/01/16 12:27:50;;;;;;;81.68;18.00;;;;;;;;;;5097719;28;20217;-67
2022/01/16 12:30:31;;;;;;;86.50;17.60;;;;;;;;;;5099879;28;20205;-68
2022/01/16 12:33:00;;;;;;;80.75;16.05;;;;;;;;;;5098199;28;20232;-68
2022/01/16 12:35:48;;;;;;;87.20;17.30;;;;;;;;;;5099974;28;20225;-68
2022/01/16 12:38:16;;;;;;;80.05;17.10;;;;;;;;;;5119928;28;20619;-68
2022/01/16 12:40:46;;;;;;;84.07;15.55;;;;;;;;;;5120987;28;20237;-68
2022/01/16 12:43:17;;;;;;;82.47;16.23;;;;;;;;;;5119386;28;20772;-67
2022/01/16 12:45:45;;;;;;;83.13;16.05;;;;;;;;;;5120712;28;20205;-68
2022/01/16 12:48:12;;;;;;;82.10;17.55;;;;;;;;;;5120538;28;20276;-68
2022/01/16 12:50:39;;;;;;;76.38;13.63;;;;;;;;;;5121873;28;20295;-68
2022/01/16 12:53:07;;;;;;;78.20;14.88;;;;;;;;;;5125185;28;20248;-68
2022/01/16 12:55:35;;;;;;;84.55;16.08;;;;;;;;;;5118629;27;20336;-68
2022/01/16 12:58:16;;;;;;;79.05;14.50;;;;;;;;;;5116123;27;20204;-68
2022/01/16 13:00:58;;;;;;;78.72;15.07;;;;;;;;;;5114495;28;20208;-68
2022/01/16 13:03:26;;;;;;;81.63;15.80;;;;;;;;;;5115497;27;20315;-68
2022/01/16 13:05:54;;;;;;;83.13;15.38;;;;;;;;;;5114968;28;20204;-68
2022/01/16 13:08:21;;;;;;;80.60;13.88;;;;;;;;;;5114830;28;20315;-68
2022/01/16 13:10:49;;;;;;;81.00;14.82;;;;;;;;;;5115455;28;20227;-68
2022/01/16 13:13:17;;;;;;;74.90;13.82;;;;;;;;;;5115425;28;20227;-68
2022/01/16 13:15:44;;;;;;;78.57;13.48;;;;;;;;;;5115250;28;20599;-68
2022/01/16 13:18:13;;;;;;;80.30;16.38;;;;;;;;;;5114753;28;20253;-68
2022/01/16 13:20:40;;;;;;;79.18;13.50;;;;;;;;;;5115079;28;20208;-68
2022/01/16 13:23:07;;;;;;;77.75;14.27;;;;;;;;;;5115014;28;20304;-68
2022/01/16 13:25:34;;;;;;;81.35;14.75;;;;;;;;;;5114867;28;20561;-68
2022/01/16 13:28:01;;;;;;;73.07;11.98;;;;;;;;;;5114433;28;20294;-68
2022/01/16 13:30:32;;;;;;;76.88;13.15;;;;;;;;;;5114864;28;20200;-68
2022/01/16 13:33:03;;;;;;;84.57;15.55;;;;;;;;;;5094186;28;20224;-68
2022/01/16 13:35:31;;;;;;;75.70;13.25;;;;;;;;;;5094364;28;20228;-68
2022/01/16 13:38:04;;;;;;;79.45;13.95;;;;;;;;;;5093901;28;20213;-68
2022/01/16 13:40:31;;;;;;;77.07;14.38;;;;;;;;;;5094109;28;20212;-68
2022/01/16 13:43:04;;;;;;;74.38;13.55;;;;;;;;;;5093893;28;20317;-68
2022/01/16 13:45:35;;;;;;;75.85;13.07;;;;;;;;;;5094022;28;20405;-68
2022/01/16 13:48:04;;;;;;;76.78;13.93;;;;;;;;;;5093704;28;20205;-68
2022/01/16 13:50:32;;;;;;;78.00;13.93;;;;;;;;;;5093900;28;20586;-68
2022/01/16 13:53:00;;;;;;;77.32;13.30;;;;;;;;;;5093709;28;20315;-68
2022/01/16 13:55:27;;;;;;;75.72;13.93;;;;;;;;;;5093755;28;20696;-68
2022/01/16 13:57:55;;;;;;;80.75;13.85;;;;;;;;;;5093262;28;20204;-68
2022/01/16 14:00:29;;;;;;;77.70;13.15;;;;;;;;;;5093941;28;20201;-68
2022/01/16 14:03:11;;;;;;;76.82;12.45;;;;;;;;;;5092360;28;20602;-68
2022/01/16 14:05:41;;;;;;;76.10;14.27;;;;;;;;;;5092956;28;20201;-68
2022/01/16 14:08:14;;;;;;;84.70;14.57;;;;;;;;;;5092936;28;20219;-67
2022/01/16 14:10:42;;;;;;;74.82;13.02;;;;;;;;;;5093315;28;20298;-69
2022/01/16 14:13:10;;;;;;;75.18;13.15;;;;;;;;;;5093247;28;20221;-68
2022/01/16 14:15:38;;;;;;;77.47;13.90;;;;;;;;;;5093282;28;20225;-69
2022/01/16 14:18:13;;;;;;;75.70;13.45;;;;;;;;;;5093028;28;20228;-69
2022/01/16 14:21:58;;;;;;;73.68;12.20;;;;;;;;;;5093267;28;20604;-68
2022/01/16 14:23:39;;;;;;;81.03;13.27;;;;;;;;;;5092790;28;20205;-68
2022/01/16 14:26:06;;;;;;;73.68;13.20;;;;;;;;;;5093281;28;20205;-69
2022/01/16 14:28:35;;;;;;;76.57;13.50;;;;;;;;;;5092699;28;20215;-68
2022/01/16 14:31:02;;;;;;;78.07;16.00;;;;;;;;;;5093031;28;20211;-68
2022/01/16 14:33:29;;;;;;;82.22;12.90;;;;;;;;;;5092834;28;20237;-69
2022/01/16 14:35:58;;;;;;;76.07;12.75;;;;;;;;;;5091704;28;20230;-69
2022/01/16 14:38:25;;;;;;;77.15;14.48;;;;;;;;;;5092610;28;20228;-69
2022/01/16 14:40:52;;;;;;;76.43;14.70;;;;;;;;;;5092915;28;20215;-68
2022/01/16 14:43:21;;;;;;;76.70;14.75;;;;;;;;;;5092740;28;20315;-68
2022/01/16 14:45:49;;;;;;;78.28;14.02;;;;;;;;;;5092658;28;20207;-69
2022/01/16 14:48:16;;;;;;;75.85;12.02;;;;;;;;;;5092681;28;20581;-69
2022/01/16 14:50:43;;;;;;;74.10;11.88;;;;;;;;;;5099691;28;20287;-69
2022/01/16 14:53:11;;;;;;;77.35;12.63;;;;;;;;;;5112703;28;20216;-68
2022/01/16 14:55:38;;;;;;;72.60;11.98;;;;;;;;;;5111114;28;20642;-66